createdAt,value
2019-01-20T00:00:44.373Z,7.50
2019-01-20T00:01:44.370Z,7.00
2019-01-20T00:02:44.376Z,6.80
2019-01-20T00:03:44.381Z,7.80
2019-01-20T00:04:44.389Z,6.90
2019-01-20T00:05:44.401Z,7.60
2019-01-20T00:06:44.407Z,6.90
2019-01-20T00:07:44.416Z,7.50
2019-01-20T00:08:44.421Z,7.20
2019-01-20T00:09:44.440Z,7.10
2019-01-20T00:10:44.434Z,6.80
2019-01-20T00:11:44.445Z,7.10
2019-01-20T00:12:44.450Z,7.10
2019-01-20T00:13:44.454Z,7.00
2019-01-20T00:14:44.462Z,7.10
2019-01-20T00:15:44.469Z,7.00
2019-01-20T00:16:44.476Z,7.20
2019-01-20T00:17:44.484Z,6.90
2019-01-20T00:18:44.491Z,7.20
2019-01-20T00:19:44.500Z,6.90
2019-01-20T00:20:44.511Z,6.50
2019-01-20T00:21:44.518Z,6.80
2019-01-20T00:22:44.519Z,6.50
2019-01-20T00:23:44.523Z,6.90
2019-01-20T00:24:44.537Z,6.60
2019-01-20T00:25:44.544Z,6.80
2019-01-20T00:26:44.549Z,6.70
2019-01-20T00:27:44.552Z,7.00
2019-01-20T00:28:44.563Z,6.40
2019-01-20T00:29:44.577Z,6.70
2019-01-20T00:30:44.577Z,6.80
2019-01-20T00:31:44.585Z,6.40
2019-01-20T00:32:44.591Z,5.90
2019-01-20T00:33:44.595Z,7.00
2019-01-20T00:34:44.818Z,7.10
2019-01-20T00:35:44.617Z,7.00
2019-01-20T00:36:44.619Z,6.40
2019-01-20T00:37:44.631Z,6.20
2019-01-20T00:38:44.636Z,6.10
2019-01-20T00:39:44.639Z,6.90
2019-01-20T00:40:44.648Z,6.20
2019-01-20T00:41:44.658Z,6.30
2019-01-20T00:42:44.666Z,6.40
2019-01-20T00:43:44.669Z,6.10
2019-01-20T00:44:44.676Z,5.90
2019-01-20T00:45:44.683Z,6.00
2019-01-20T00:46:44.695Z,6.20
2019-01-20T00:47:44.697Z,5.70
2019-01-20T00:48:44.708Z,5.90
2019-01-20T00:49:44.711Z,6.00
2019-01-20T00:50:44.718Z,5.80
2019-01-20T00:51:44.725Z,5.90
2019-01-20T00:52:44.735Z,5.90
2019-01-20T00:53:44.741Z,5.80
2019-01-20T00:54:44.746Z,6.20
2019-01-20T00:55:44.756Z,6.20
2019-01-20T00:56:44.764Z,6.00
2019-01-20T00:57:44.768Z,6.00
2019-01-20T00:58:44.778Z,5.90
2019-01-20T00:59:44.780Z,5.70
2019-01-20T01:00:44.791Z,5.90
2019-01-20T01:01:44.799Z,5.40
2019-01-20T01:02:44.806Z,5.80
2019-01-20T01:03:44.812Z,5.80
2019-01-20T01:04:44.820Z,5.80
2019-01-20T01:05:44.826Z,5.80
2019-01-20T01:06:44.831Z,6.00
2019-01-20T01:07:44.843Z,6.00
2019-01-20T01:08:44.851Z,5.90
2019-01-20T01:09:44.855Z,6.40
2019-01-20T01:10:44.859Z,6.10
2019-01-20T01:11:44.871Z,5.40
2019-01-20T01:12:44.874Z,5.90
2019-01-20T01:13:44.880Z,5.90
2019-01-20T01:14:44.896Z,5.70
2019-01-20T01:15:44.900Z,6.00
2019-01-20T01:16:44.901Z,6.20
2019-01-20T01:17:44.913Z,5.60
2019-01-20T01:18:44.915Z,5.80
2019-01-20T01:19:44.925Z,5.60
2019-01-20T01:20:44.930Z,5.70
2019-01-20T01:21:44.937Z,5.50
2019-01-20T01:22:44.947Z,6.50
2019-01-20T01:23:44.951Z,5.90
2019-01-20T01:24:44.963Z,6.60
2019-01-20T01:25:44.969Z,5.70
2019-01-20T01:26:45.025Z,6.20
2019-01-20T01:27:44.984Z,5.70
2019-01-20T01:28:44.989Z,5.70
2019-01-20T01:29:44.999Z,6.10
2019-01-20T01:30:45.002Z,5.40
2019-01-20T01:31:45.011Z,6.60
2019-01-20T01:32:45.029Z,6.30
2019-01-20T01:33:45.026Z,6.00
2019-01-20T01:34:45.033Z,5.70
2019-01-20T01:35:45.039Z,5.60
2019-01-20T01:36:45.044Z,6.30
2019-01-20T01:37:45.051Z,6.40
2019-01-20T01:38:45.094Z,6.10
2019-01-20T01:39:45.069Z,6.50
2019-01-20T01:40:45.074Z,6.40
2019-01-20T01:41:45.083Z,6.00
2019-01-20T01:42:45.089Z,5.90
2019-01-20T01:43:45.097Z,6.50
2019-01-20T01:44:45.111Z,6.40
2019-01-20T01:45:45.118Z,6.00
2019-01-20T01:46:45.116Z,6.10
2019-01-20T01:47:45.121Z,6.40
2019-01-20T01:48:45.134Z,5.90
2019-01-20T01:49:45.143Z,6.40
2019-01-20T01:50:45.148Z,6.20
2019-01-20T01:51:45.149Z,6.30
2019-01-20T01:52:45.161Z,6.00
2019-01-20T01:53:45.164Z,6.00
2019-01-20T01:54:45.176Z,6.20
2019-01-20T01:55:45.234Z,6.10
2019-01-20T01:56:45.189Z,6.70
2019-01-20T01:57:45.199Z,6.40
2019-01-20T01:58:45.201Z,6.40
2019-01-20T01:59:45.207Z,6.10
2019-01-20T02:00:45.213Z,6.30
2019-01-20T02:01:45.226Z,6.00
2019-01-20T02:02:45.232Z,5.70
2019-01-20T02:03:45.236Z,6.10
2019-01-20T02:04:45.266Z,6.10
2019-01-20T02:05:45.249Z,6.10
2019-01-20T02:06:45.272Z,6.60
2019-01-20T02:07:45.274Z,6.50
2019-01-20T02:08:45.273Z,6.70
2019-01-20T02:09:45.279Z,6.30
2019-01-20T02:10:45.289Z,6.70
2019-01-20T02:11:46.883Z,6.70
2019-01-20T02:12:45.300Z,6.60
2019-01-20T02:13:45.313Z,6.40
2019-01-20T02:14:45.317Z,6.20
2019-01-20T02:15:45.324Z,6.30
2019-01-20T02:16:45.330Z,6.00
2019-01-20T02:17:45.337Z,6.40
2019-01-20T02:18:45.344Z,6.40
2019-01-20T02:19:45.352Z,6.70
2019-01-20T02:20:45.366Z,6.40
2019-01-20T02:21:45.366Z,6.90
2019-01-20T02:22:45.387Z,6.30
2019-01-20T02:23:45.383Z,6.50
2019-01-20T02:24:45.387Z,6.40
2019-01-20T02:25:45.394Z,6.70
2019-01-20T02:26:45.405Z,6.40
2019-01-20T02:27:45.406Z,6.60
2019-01-20T02:28:45.411Z,6.20
2019-01-20T02:29:45.421Z,6.30
2019-01-20T02:30:45.428Z,6.40
2019-01-20T02:31:45.436Z,6.30
2019-01-20T02:32:45.443Z,6.20
2019-01-20T02:33:45.451Z,6.20
2019-01-20T02:34:45.459Z,6.30
2019-01-20T02:35:45.481Z,6.20
2019-01-20T02:36:45.483Z,6.10
2019-01-20T02:37:45.476Z,6.20
2019-01-20T02:38:45.486Z,6.10
2019-01-20T02:39:45.491Z,6.50
2019-01-20T02:40:45.503Z,5.60
2019-01-20T02:41:45.508Z,6.10
2019-01-20T02:42:45.512Z,6.40
2019-01-20T02:43:45.520Z,6.40
2019-01-20T02:44:45.527Z,6.70
2019-01-20T02:45:45.536Z,6.40
2019-01-20T02:46:45.542Z,6.10
2019-01-20T02:47:45.548Z,6.10
2019-01-20T02:48:45.558Z,6.10
2019-01-20T02:49:45.568Z,5.80
2019-01-20T02:50:45.572Z,6.30
2019-01-20T02:51:45.587Z,6.20
2019-01-20T02:52:45.598Z,6.40
2019-01-20T02:53:45.595Z,6.20
2019-01-20T02:54:45.600Z,6.60
2019-01-20T02:55:45.611Z,6.20
2019-01-20T02:56:45.611Z,6.50
2019-01-20T02:57:45.617Z,6.10
2019-01-20T02:58:45.643Z,6.50
2019-01-20T02:59:45.632Z,6.40
2019-01-20T03:00:45.645Z,6.80
2019-01-20T03:01:45.645Z,6.80
2019-01-20T03:02:45.662Z,6.80
2019-01-20T03:03:45.659Z,6.50
2019-01-20T03:04:45.671Z,6.30
2019-01-20T03:05:45.686Z,6.60
2019-01-20T03:06:45.687Z,7.10
2019-01-20T03:07:45.689Z,7.20
2019-01-20T03:08:45.706Z,7.00
2019-01-20T03:09:45.701Z,6.90
2019-01-20T03:10:45.707Z,6.90
2019-01-20T03:11:45.718Z,7.10
2019-01-20T03:12:45.729Z,6.80
2019-01-20T03:13:45.730Z,7.10
2019-01-20T03:14:45.854Z,6.80
2019-01-20T03:15:45.742Z,7.80
2019-01-20T03:16:45.752Z,6.90
2019-01-20T03:17:45.761Z,6.40
2019-01-20T03:18:45.762Z,6.40
2019-01-20T03:19:45.772Z,7.10
2019-01-20T03:20:45.780Z,7.20
2019-01-20T03:21:45.788Z,7.20
2019-01-20T03:22:45.801Z,6.80
2019-01-20T03:23:45.799Z,7.20
2019-01-20T03:24:45.817Z,6.60
2019-01-20T03:25:45.814Z,6.80
2019-01-20T03:26:45.823Z,7.10
2019-01-20T03:27:45.833Z,7.00
2019-01-20T03:28:45.832Z,7.50
2019-01-20T03:29:45.845Z,6.80
2019-01-20T03:30:45.850Z,6.70
2019-01-20T03:31:45.853Z,6.70
2019-01-20T03:32:45.869Z,6.70
2019-01-20T03:33:45.868Z,6.90
2019-01-20T03:34:45.879Z,7.30
2019-01-20T03:35:45.893Z,6.60
2019-01-20T03:36:45.956Z,7.00
2019-01-20T03:37:45.897Z,7.00
2019-01-20T03:38:45.902Z,7.10
2019-01-20T03:39:45.923Z,6.70
2019-01-20T03:40:45.915Z,7.20
2019-01-20T03:41:45.928Z,6.70
2019-01-20T03:42:45.932Z,6.80
2019-01-20T03:43:45.938Z,7.10
2019-01-20T03:44:45.945Z,7.10
2019-01-20T03:45:45.954Z,6.80
2019-01-20T03:46:45.957Z,7.20
2019-01-20T03:47:45.964Z,7.00
2019-01-20T03:48:45.972Z,6.80
2019-01-20T03:49:46.086Z,6.90
2019-01-20T03:50:46.396Z,6.90
2019-01-20T03:51:46.030Z,7.70
2019-01-20T03:52:46.002Z,6.20
2019-01-20T03:53:46.011Z,7.00
2019-01-20T03:54:46.015Z,6.90
2019-01-20T03:55:46.024Z,6.90
2019-01-20T03:56:46.030Z,6.90
2019-01-20T03:57:46.038Z,7.00
2019-01-20T03:58:46.043Z,7.20
2019-01-20T03:59:46.051Z,6.80
2019-01-20T04:00:46.056Z,6.50
2019-01-20T04:01:46.067Z,6.80
2019-01-20T04:02:46.072Z,6.50
2019-01-20T04:03:46.079Z,7.40
2019-01-20T04:04:46.079Z,6.50
2019-01-20T04:05:46.088Z,6.50
2019-01-20T04:06:46.105Z,6.60
2019-01-20T04:07:46.112Z,6.50
2019-01-20T04:08:46.109Z,6.50
2019-01-20T04:09:46.120Z,6.60
2019-01-20T04:10:46.124Z,6.90
2019-01-20T04:11:46.130Z,6.60
2019-01-20T04:12:46.134Z,6.80
2019-01-20T04:13:46.154Z,7.00
2019-01-20T04:14:46.155Z,6.70
2019-01-20T04:15:46.158Z,7.20
2019-01-20T04:16:46.161Z,6.60
2019-01-20T04:17:46.169Z,6.60
2019-01-20T04:18:46.181Z,7.00
2019-01-20T04:19:46.187Z,7.00
2019-01-20T04:20:46.193Z,7.30
2019-01-20T04:21:46.198Z,6.40
2019-01-20T04:22:46.207Z,6.70
2019-01-20T04:23:46.214Z,7.30
2019-01-20T04:24:46.230Z,6.90
2019-01-20T04:25:46.260Z,6.70
2019-01-20T04:26:46.249Z,6.60
2019-01-20T04:27:46.296Z,6.70
2019-01-20T04:28:46.248Z,6.80
2019-01-20T04:29:46.370Z,7.20
2019-01-20T04:30:46.259Z,6.30
2019-01-20T04:31:46.265Z,6.50
2019-01-20T04:32:46.288Z,6.80
2019-01-20T04:33:46.282Z,7.40
2019-01-20T04:34:46.287Z,6.90
2019-01-20T04:35:46.295Z,6.90
2019-01-20T04:36:46.300Z,7.40
2019-01-20T04:37:46.310Z,6.90
2019-01-20T04:38:46.322Z,6.70
2019-01-20T04:39:46.322Z,7.10
2019-01-20T04:40:46.448Z,7.20
2019-01-20T04:41:46.345Z,6.50
2019-01-20T04:42:46.355Z,6.90
2019-01-20T04:43:46.365Z,6.60
2019-01-20T04:44:46.360Z,6.90
2019-01-20T04:45:46.367Z,6.50
2019-01-20T04:46:46.374Z,6.50
2019-01-20T04:47:46.375Z,6.70
2019-01-20T04:48:46.387Z,7.50
2019-01-20T04:49:46.391Z,7.30
2019-01-20T04:50:46.400Z,6.70
2019-01-20T04:51:46.402Z,6.30
2019-01-20T04:52:46.412Z,6.90
2019-01-20T04:53:46.423Z,6.70
2019-01-20T04:54:46.425Z,7.30
2019-01-20T04:55:46.432Z,6.90
2019-01-20T04:56:46.447Z,7.30
2019-01-20T04:57:46.448Z,7.20
2019-01-20T04:58:46.460Z,7.00
2019-01-20T04:59:46.455Z,7.00
2019-01-20T05:00:46.462Z,7.30
2019-01-20T05:01:46.475Z,6.80
2019-01-20T05:02:46.482Z,7.00
2019-01-20T05:03:46.490Z,7.30
2019-01-20T05:04:47.208Z,6.70
2019-01-20T05:05:46.499Z,6.90
2019-01-20T05:06:46.505Z,7.20
2019-01-20T05:07:46.511Z,7.30
2019-01-20T05:08:46.523Z,7.20
2019-01-20T05:09:46.534Z,7.10
2019-01-20T05:10:46.536Z,7.50
2019-01-20T05:11:46.542Z,7.70
2019-01-20T05:12:46.547Z,7.90
2019-01-20T05:13:46.552Z,7.50
2019-01-20T05:14:46.560Z,7.50
2019-01-20T05:15:46.572Z,7.70
2019-01-20T05:16:46.577Z,7.90
2019-01-20T05:17:46.582Z,7.50
2019-01-20T05:18:46.593Z,7.50
2019-01-20T05:19:46.595Z,7.80
2019-01-20T05:20:46.599Z,8.00
2019-01-20T05:21:46.614Z,7.50
2019-01-20T05:22:46.623Z,7.90
2019-01-20T05:23:46.644Z,7.10
2019-01-20T05:24:46.630Z,7.30
2019-01-20T05:25:46.635Z,6.90
2019-01-20T05:26:46.645Z,7.60
2019-01-20T05:27:46.651Z,7.30
2019-01-20T05:28:46.659Z,6.90
2019-01-20T05:29:46.669Z,7.10
2019-01-20T05:30:46.688Z,6.80
2019-01-20T05:31:46.677Z,7.00
2019-01-20T05:32:46.679Z,8.00
2019-01-20T05:33:46.688Z,7.40
2019-01-20T05:34:46.695Z,7.40
2019-01-20T05:35:46.704Z,7.20
2019-01-20T05:36:46.708Z,7.40
2019-01-20T05:37:46.718Z,7.30
2019-01-20T05:38:46.723Z,7.70
2019-01-20T05:39:46.731Z,7.30
2019-01-20T05:40:46.736Z,7.60
2019-01-20T05:41:46.741Z,7.40
2019-01-20T05:42:46.890Z,7.40
2019-01-20T05:43:46.794Z,8.10
2019-01-20T05:44:46.762Z,7.70
2019-01-20T05:45:46.773Z,7.80
2019-01-20T05:46:46.782Z,7.50
2019-01-20T05:47:46.783Z,7.30
2019-01-20T05:48:46.798Z,7.80
2019-01-20T05:49:46.800Z,7.90
2019-01-20T05:50:46.813Z,7.60
2019-01-20T05:51:46.809Z,7.50
2019-01-20T05:52:46.813Z,7.60
2019-01-20T05:53:46.826Z,8.30
2019-01-20T05:54:46.831Z,7.60
2019-01-20T05:55:46.826Z,8.00
2019-01-20T05:56:46.832Z,7.00
2019-01-20T05:57:46.838Z,7.60
2019-01-20T05:58:46.848Z,7.40
2019-01-20T05:59:46.858Z,7.60
2019-01-20T06:00:46.861Z,7.90
2019-01-20T06:01:46.870Z,8.00
2019-01-20T06:02:46.906Z,7.30
2019-01-20T06:03:46.882Z,7.20
2019-01-20T06:04:46.888Z,8.20
2019-01-20T06:05:46.897Z,7.20
2019-01-20T06:06:46.902Z,7.80
2019-01-20T06:07:46.908Z,7.80
2019-01-20T06:08:46.915Z,7.00
2019-01-20T06:09:46.920Z,7.10
2019-01-20T06:10:46.928Z,7.30
2019-01-20T06:11:46.930Z,7.10
2019-01-20T06:12:53.901Z,7.00
2019-01-20T06:13:46.944Z,7.70
2019-01-20T06:14:46.951Z,7.80
2019-01-20T06:15:46.968Z,7.90
2019-01-20T06:16:46.968Z,7.90
2019-01-20T06:17:46.987Z,7.60
2019-01-20T06:18:46.980Z,7.10
2019-01-20T06:19:46.988Z,7.10
2019-01-20T06:20:46.993Z,7.30
2019-01-20T06:21:46.999Z,7.70
2019-01-20T06:22:47.009Z,7.50
2019-01-20T06:23:47.017Z,7.70
2019-01-20T06:24:47.021Z,7.70
2019-01-20T06:25:47.031Z,7.60
2019-01-20T06:26:47.031Z,7.50
2019-01-20T06:27:47.035Z,7.10
2019-01-20T06:28:47.044Z,7.60
2019-01-20T06:29:47.052Z,7.40
2019-01-20T06:30:47.055Z,7.30
2019-01-20T06:31:47.072Z,7.20
2019-01-20T06:32:47.067Z,7.00
2019-01-20T06:33:47.081Z,7.40
2019-01-20T06:34:48.822Z,7.20
2019-01-20T06:35:47.094Z,7.10
2019-01-20T06:36:47.101Z,7.30
2019-01-20T06:37:47.103Z,7.80
2019-01-20T06:38:47.113Z,7.80
2019-01-20T06:39:47.113Z,7.70
2019-01-20T06:40:47.126Z,7.60
2019-01-20T06:41:47.126Z,7.80
2019-01-20T06:42:47.134Z,7.30
2019-01-20T06:43:47.143Z,7.00
2019-01-20T06:44:47.150Z,7.60
2019-01-20T06:45:47.159Z,7.50
2019-01-20T06:46:47.160Z,7.50
2019-01-20T06:47:47.168Z,7.90
2019-01-20T06:48:47.176Z,7.70
2019-01-20T06:49:47.189Z,7.80
2019-01-20T06:50:47.236Z,8.10
2019-01-20T06:51:47.195Z,8.50
2019-01-20T06:52:47.205Z,8.20
2019-01-20T06:53:47.210Z,8.40
2019-01-20T06:54:47.213Z,7.80
2019-01-20T06:55:47.221Z,8.30
2019-01-20T06:56:47.231Z,7.90
2019-01-20T06:57:47.235Z,7.70
2019-01-20T06:58:47.240Z,8.10
2019-01-20T06:59:47.257Z,7.70
2019-01-20T07:00:47.253Z,8.60
2019-01-20T07:01:47.266Z,7.80
2019-01-20T07:02:47.267Z,8.10
2019-01-20T07:03:47.272Z,8.00
2019-01-20T07:04:47.280Z,7.90
2019-01-20T07:05:47.308Z,7.90
2019-01-20T07:06:47.292Z,8.10
2019-01-20T07:07:47.297Z,8.30
2019-01-20T07:08:47.306Z,8.30
2019-01-20T07:09:47.312Z,7.70
2019-01-20T07:10:47.319Z,7.80
2019-01-20T07:11:47.324Z,7.90
2019-01-20T07:12:47.336Z,7.70
2019-01-20T07:13:47.339Z,7.60
2019-01-20T07:14:47.345Z,8.00
2019-01-20T07:15:47.350Z,7.90
2019-01-20T07:16:47.362Z,7.70
2019-01-20T07:17:47.365Z,7.20
2019-01-20T07:18:47.370Z,7.20
2019-01-20T07:19:47.380Z,7.50
2019-01-20T07:20:47.395Z,7.80
2019-01-20T07:21:47.445Z,7.10
2019-01-20T07:22:47.397Z,7.40
2019-01-20T07:23:47.403Z,7.30
2019-01-20T07:24:47.409Z,7.30
2019-01-20T07:25:47.421Z,7.70
2019-01-20T07:26:47.422Z,7.50
2019-01-20T07:27:47.430Z,7.20
2019-01-20T07:28:47.437Z,7.30
2019-01-20T07:29:47.444Z,7.30
2019-01-20T07:30:47.453Z,7.50
2019-01-20T07:31:47.457Z,7.00
2019-01-20T07:32:47.464Z,7.60
2019-01-20T07:33:47.469Z,6.70
2019-01-20T07:34:47.480Z,7.40
2019-01-20T07:35:47.481Z,7.50
2019-01-20T07:36:47.543Z,7.50
2019-01-20T07:37:47.500Z,6.80
2019-01-20T07:38:47.507Z,7.10
2019-01-20T07:39:47.507Z,7.20
2019-01-20T07:40:47.513Z,7.20
2019-01-20T07:41:47.522Z,7.00
2019-01-20T07:42:47.532Z,7.40
2019-01-20T07:43:47.538Z,6.80
2019-01-20T07:44:47.545Z,7.10
2019-01-20T07:45:47.558Z,7.30
2019-01-20T07:46:47.556Z,7.10
2019-01-20T07:47:47.561Z,7.50
2019-01-20T07:48:47.570Z,7.00
2019-01-20T07:49:47.573Z,7.60
2019-01-20T07:50:47.829Z,7.80
2019-01-20T07:51:47.589Z,7.90
2019-01-20T07:52:47.696Z,7.60
2019-01-20T07:53:47.603Z,8.00
2019-01-20T07:54:47.614Z,8.40
2019-01-20T07:55:47.613Z,8.40
2019-01-20T07:56:47.621Z,8.30
2019-01-20T07:57:47.626Z,8.10
2019-01-20T07:58:47.639Z,8.50
2019-01-20T07:59:47.651Z,7.80
2019-01-20T08:00:47.645Z,7.90
2019-01-20T08:01:47.655Z,8.10
2019-01-20T08:02:47.664Z,8.00
2019-01-20T08:03:47.671Z,8.20
2019-01-20T08:04:47.677Z,8.30
2019-01-20T08:05:47.697Z,8.30
2019-01-20T08:06:47.686Z,8.20
2019-01-20T08:07:47.697Z,8.30
2019-01-20T08:08:47.701Z,8.90
2019-01-20T08:09:47.711Z,8.20
2019-01-20T08:10:47.737Z,7.90
2019-01-20T08:11:47.720Z,7.80
2019-01-20T08:12:47.727Z,8.10
2019-01-20T08:13:47.732Z,7.90
2019-01-20T08:14:47.742Z,7.70
2019-01-20T08:15:47.750Z,8.30
2019-01-20T08:16:47.752Z,7.90
2019-01-20T08:17:47.762Z,7.80
2019-01-20T08:18:47.769Z,8.10
2019-01-20T08:19:47.772Z,8.40
2019-01-20T08:20:47.781Z,8.20
2019-01-20T08:21:47.785Z,7.80
2019-01-20T08:22:47.792Z,7.70
2019-01-20T08:23:47.798Z,7.90
2019-01-20T08:24:47.811Z,7.70
2019-01-20T08:25:47.814Z,7.90
2019-01-20T08:26:48.105Z,8.00
2019-01-20T08:27:47.828Z,8.20
2019-01-20T08:28:47.836Z,8.30
2019-01-20T08:29:47.861Z,8.10
2019-01-20T08:30:47.847Z,8.10
2019-01-20T08:31:47.857Z,8.40
2019-01-20T08:32:47.899Z,8.00
2019-01-20T08:33:47.870Z,9.00
2019-01-20T08:34:47.875Z,8.10
2019-01-20T08:35:47.883Z,10.30
2019-01-20T08:36:47.891Z,10.10
2019-01-20T08:37:47.926Z,8.30
2019-01-20T08:38:47.906Z,7.90
2019-01-20T08:39:47.910Z,8.20
2019-01-20T08:40:47.914Z,7.40
2019-01-20T08:41:47.925Z,7.10
2019-01-20T08:42:47.931Z,7.60
2019-01-20T08:43:47.941Z,7.40
2019-01-20T08:44:47.943Z,7.60
2019-01-20T08:45:47.963Z,7.60
2019-01-20T08:46:47.956Z,7.40
2019-01-20T08:47:47.970Z,7.50
2019-01-20T08:48:47.973Z,7.70
2019-01-20T08:49:47.977Z,7.80
2019-01-20T08:50:47.984Z,7.50
2019-01-20T08:51:47.992Z,8.00
2019-01-20T08:52:47.999Z,8.40
2019-01-20T08:53:48.005Z,7.70
2019-01-20T08:54:48.010Z,8.60
2019-01-20T08:55:48.023Z,8.20
2019-01-20T08:56:48.042Z,8.20
2019-01-20T08:57:48.032Z,8.20
2019-01-20T08:58:48.044Z,8.40
2019-01-20T08:59:48.045Z,7.40
2019-01-20T09:00:48.058Z,8.20
2019-01-20T09:01:48.062Z,7.80
2019-01-20T09:02:48.066Z,8.00
2019-01-20T09:03:48.073Z,8.50
2019-01-20T09:04:48.090Z,8.10
2019-01-20T09:05:48.089Z,8.20
2019-01-20T09:06:48.095Z,7.40
2019-01-20T09:07:48.104Z,7.60
2019-01-20T09:08:48.112Z,8.00
2019-01-20T09:09:48.119Z,7.80
2019-01-20T09:10:48.132Z,7.80
2019-01-20T09:11:48.135Z,8.30
2019-01-20T09:12:48.145Z,8.30
2019-01-20T09:13:48.149Z,7.90
2019-01-20T09:14:48.156Z,7.70
2019-01-20T09:15:48.166Z,8.10
2019-01-20T09:16:48.173Z,7.80
2019-01-20T09:17:48.172Z,7.80
2019-01-20T09:18:48.181Z,7.60
2019-01-20T09:19:48.202Z,7.90
2019-01-20T09:20:48.201Z,8.00
2019-01-20T09:21:48.201Z,7.50
2019-01-20T09:22:48.227Z,8.70
2019-01-20T09:23:48.220Z,8.20
2019-01-20T09:24:48.226Z,8.00
2019-01-20T09:25:48.235Z,7.70
2019-01-20T09:26:48.238Z,8.30
2019-01-20T09:27:48.244Z,8.20
2019-01-20T09:28:48.257Z,7.60
2019-01-20T09:29:48.260Z,8.40
2019-01-20T09:30:48.271Z,7.70
2019-01-20T09:31:48.271Z,8.50
2019-01-20T09:32:48.288Z,8.20
2019-01-20T09:33:48.285Z,8.30
2019-01-20T09:34:48.306Z,8.50
2019-01-20T09:35:48.313Z,7.90
2019-01-20T09:36:48.309Z,8.40
2019-01-20T09:37:48.317Z,8.20
2019-01-20T09:38:48.322Z,8.40
2019-01-20T09:39:48.331Z,8.40
2019-01-20T09:40:48.337Z,8.40
2019-01-20T09:41:48.344Z,8.30
2019-01-20T09:42:48.350Z,8.10
2019-01-20T09:43:48.572Z,8.40
2019-01-20T09:44:48.369Z,8.50
2019-01-20T09:45:48.378Z,8.00
2019-01-20T09:46:48.383Z,8.30
2019-01-20T09:47:48.388Z,8.60
2019-01-20T09:48:48.397Z,8.50
2019-01-20T09:49:48.406Z,8.00
2019-01-20T09:50:48.414Z,7.60
2019-01-20T09:51:48.419Z,8.00
2019-01-20T09:52:48.427Z,8.40
2019-01-20T09:53:48.436Z,8.30
2019-01-20T09:54:48.439Z,8.50
2019-01-20T09:55:48.445Z,8.90
2019-01-20T09:56:48.458Z,8.40
2019-01-20T09:57:48.467Z,8.60
2019-01-20T09:58:48.470Z,8.30
2019-01-20T09:59:48.475Z,8.30
2019-01-20T10:00:48.485Z,8.30
2019-01-20T10:01:48.491Z,8.50
2019-01-20T10:02:48.498Z,8.20
2019-01-20T10:03:48.507Z,8.30
2019-01-20T10:04:48.517Z,8.10
2019-01-20T10:05:48.522Z,8.60
2019-01-20T10:06:48.537Z,8.60
2019-01-20T10:07:48.556Z,8.20
2019-01-20T10:08:48.544Z,8.60
2019-01-20T10:09:48.551Z,8.60
2019-01-20T10:10:48.556Z,8.80
2019-01-20T10:11:48.568Z,8.70
2019-01-20T10:12:48.578Z,8.70
2019-01-20T10:13:54.781Z,8.60
2019-01-20T10:14:48.626Z,8.30
2019-01-20T10:15:48.611Z,9.10
2019-01-20T10:16:48.605Z,9.20
2019-01-20T10:17:48.622Z,8.60
2019-01-20T10:18:48.620Z,8.40
2019-01-20T10:19:48.626Z,8.60
2019-01-20T10:20:48.642Z,8.00
2019-01-20T10:21:48.640Z,8.70
2019-01-20T10:22:48.650Z,9.10
2019-01-20T10:23:48.654Z,8.80
2019-01-20T10:24:48.672Z,8.90
2019-01-20T10:25:48.677Z,9.00
2019-01-20T10:26:48.684Z,9.80
2019-01-20T10:27:48.729Z,9.40
2019-01-20T10:28:48.697Z,8.60
2019-01-20T10:29:48.714Z,8.80
2019-01-20T10:30:48.736Z,9.90
2019-01-20T10:31:48.722Z,8.90
2019-01-20T10:32:48.729Z,8.70
2019-01-20T10:33:48.742Z,8.70
2019-01-20T10:34:48.742Z,8.90
2019-01-20T10:35:48.753Z,8.60
2019-01-20T10:36:48.757Z,9.70
2019-01-20T10:37:48.774Z,8.40
2019-01-20T10:38:48.789Z,8.40
2019-01-20T10:39:48.780Z,8.80
2019-01-20T10:40:48.800Z,9.00
2019-01-20T10:41:48.799Z,8.50
2019-01-20T10:42:48.813Z,8.60
2019-01-20T10:43:48.820Z,8.60
2019-01-20T10:44:48.821Z,9.10
2019-01-20T10:45:48.832Z,8.60
2019-01-20T10:46:48.842Z,8.50
2019-01-20T10:47:48.844Z,8.50
2019-01-20T10:48:48.855Z,8.80
2019-01-20T10:49:48.864Z,8.50
2019-01-20T10:50:48.871Z,8.40
2019-01-20T10:51:48.879Z,8.10
2019-01-20T10:52:48.885Z,7.50
2019-01-20T10:53:53.087Z,8.40
2019-01-20T10:54:48.918Z,7.70
2019-01-20T10:55:48.920Z,7.60
2019-01-20T10:56:48.935Z,7.80
2019-01-20T10:57:48.953Z,8.00
2019-01-20T10:58:48.937Z,8.60
2019-01-20T10:59:48.941Z,8.10
2019-01-20T11:00:49.153Z,7.60
2019-01-20T11:01:49.010Z,8.10
2019-01-20T11:02:48.971Z,8.10
2019-01-20T11:03:48.982Z,7.90
2019-01-20T11:04:48.988Z,8.10
2019-01-20T11:05:48.992Z,8.10
2019-01-20T11:06:49.001Z,7.80
2019-01-20T11:07:49.019Z,7.90
2019-01-20T11:08:49.027Z,8.00
2019-01-20T11:09:49.846Z,9.10
2019-01-20T11:10:49.034Z,8.20
2019-01-20T11:11:49.042Z,7.40
2019-01-20T11:12:49.047Z,7.40
2019-01-20T11:13:49.060Z,7.70
2019-01-20T11:14:49.064Z,7.70
2019-01-20T11:15:49.187Z,7.60
2019-01-20T11:16:49.084Z,7.70
2019-01-20T11:17:49.091Z,7.00
2019-01-20T11:18:49.100Z,7.80
2019-01-20T11:19:49.114Z,7.40
2019-01-20T11:20:49.114Z,7.60
2019-01-20T11:21:49.124Z,7.50
2019-01-20T11:22:49.130Z,7.60
2019-01-20T11:23:49.140Z,7.80
2019-01-20T11:24:49.150Z,7.40
2019-01-20T11:25:49.172Z,7.40
2019-01-20T11:26:49.188Z,7.30
2019-01-20T11:27:49.181Z,7.70
2019-01-20T11:28:49.202Z,8.00
2019-01-20T11:29:49.194Z,7.00
2019-01-20T11:30:49.199Z,7.30
2019-01-20T11:31:49.223Z,7.80
2019-01-20T11:32:49.219Z,7.80
2019-01-20T11:33:49.250Z,7.80
2019-01-20T11:34:49.254Z,7.60
2019-01-20T11:35:49.241Z,8.10
2019-01-20T11:36:49.256Z,7.80
2019-01-20T11:37:49.255Z,6.90
2019-01-20T11:38:49.273Z,6.70
2019-01-20T11:39:49.272Z,7.30
2019-01-20T11:40:49.280Z,7.20
2019-01-20T11:41:49.296Z,7.00
2019-01-20T11:42:49.325Z,6.60
2019-01-20T11:43:49.316Z,7.00
2019-01-20T11:44:49.311Z,7.00
2019-01-20T11:45:49.370Z,7.30
2019-01-20T11:46:49.332Z,7.10
2019-01-20T11:47:49.344Z,7.60
2019-01-20T11:48:49.349Z,7.00
2019-01-20T11:49:49.355Z,7.00
2019-01-20T11:50:49.367Z,7.60
2019-01-20T11:51:49.375Z,6.70
2019-01-20T11:52:49.383Z,7.00
2019-01-20T11:53:49.393Z,7.10
2019-01-20T11:54:49.401Z,7.70
2019-01-20T11:55:49.406Z,7.10
2019-01-20T11:56:49.430Z,6.70
2019-01-20T11:57:49.423Z,7.80
2019-01-20T11:58:49.437Z,6.80
2019-01-20T11:59:49.440Z,7.30
2019-01-20T12:00:49.497Z,6.60
2019-01-20T12:01:50.885Z,6.70
2019-01-20T12:02:49.515Z,6.30
2019-01-20T12:03:49.473Z,6.90
2019-01-20T12:04:49.521Z,6.20
2019-01-20T12:05:49.506Z,6.50
2019-01-20T12:06:49.505Z,6.30
2019-01-20T12:07:49.516Z,6.80
2019-01-20T12:08:49.520Z,6.60
2019-01-20T12:09:49.525Z,6.40
2019-01-20T12:10:49.543Z,6.20
2019-01-20T12:11:49.559Z,6.50
2019-01-20T12:12:49.567Z,6.60
2019-01-20T12:13:49.576Z,6.40
2019-01-20T12:14:49.582Z,6.20
2019-01-20T12:15:49.581Z,6.30
2019-01-20T12:16:49.587Z,6.70
2019-01-20T12:17:49.599Z,6.40
2019-01-20T12:18:50.484Z,6.40
2019-01-20T12:19:49.631Z,6.70
2019-01-20T12:20:49.630Z,6.30
2019-01-20T12:21:49.631Z,7.10
2019-01-20T12:22:49.639Z,6.70
2019-01-20T12:23:49.649Z,6.40
2019-01-20T12:24:49.657Z,6.30
2019-01-20T12:25:49.679Z,6.70
2019-01-20T12:26:49.726Z,6.60
2019-01-20T12:27:49.695Z,6.50
2019-01-20T12:28:49.689Z,6.60
2019-01-20T12:29:51.944Z,6.30
2019-01-20T12:30:49.709Z,6.20
2019-01-20T12:31:49.742Z,6.30
2019-01-20T12:32:49.722Z,7.10
2019-01-20T12:33:49.749Z,6.80
2019-01-20T12:34:49.741Z,6.30
2019-01-20T12:35:49.755Z,6.60
2019-01-20T12:36:49.768Z,6.00
2019-01-20T12:37:49.771Z,6.60
2019-01-20T12:39:49.785Z,6.90
2019-01-20T12:40:49.797Z,6.50
2019-01-20T12:41:49.802Z,6.60
2019-01-20T12:42:49.810Z,5.80
2019-01-20T12:43:49.824Z,6.00
2019-01-20T12:44:49.829Z,6.50
2019-01-20T12:45:49.844Z,6.70
2019-01-20T12:46:49.845Z,7.40
2019-01-20T12:47:49.866Z,6.70
2019-01-20T12:48:49.879Z,6.50
2019-01-20T12:49:49.893Z,6.60
2019-01-20T12:50:49.895Z,6.00
2019-01-20T12:51:49.937Z,6.00
2019-01-20T12:52:49.906Z,5.90
2019-01-20T12:53:49.906Z,6.40
2019-01-20T12:54:49.915Z,6.70
2019-01-20T12:55:49.924Z,6.30
2019-01-20T12:56:49.939Z,6.40
2019-01-20T12:57:49.938Z,6.60
2019-01-20T12:58:49.963Z,6.30
2019-01-20T12:59:49.958Z,6.70
2019-01-20T13:00:49.985Z,5.90
2019-01-20T13:01:49.976Z,6.10
2019-01-20T13:02:49.988Z,5.90
2019-01-20T13:03:49.995Z,6.00
2019-01-20T13:04:50.005Z,6.20
2019-01-20T13:05:50.019Z,5.90
2019-01-20T13:06:50.022Z,5.90
2019-01-20T13:07:50.028Z,6.50
2019-01-20T13:08:50.052Z,6.10
2019-01-20T13:09:50.047Z,6.00
2019-01-20T13:10:50.062Z,5.80
2019-01-20T13:11:50.066Z,6.10
2019-01-20T13:12:50.083Z,6.10
2019-01-20T13:13:50.081Z,6.10
2019-01-20T13:14:50.085Z,5.90
2019-01-20T13:15:50.100Z,5.80
2019-01-20T13:16:50.132Z,5.90
2019-01-20T13:17:50.121Z,5.80
2019-01-20T13:18:50.134Z,5.70
2019-01-20T13:19:50.130Z,6.10